Time;durP1;ratioP1;P1;durP2;ratioP2;P2;SDS_P1;SDS_P2;PMS_P1;PMS_P2;Temp;Humidity;BMP_temperature;BMP_pressure;BME280_temperature;BME280_humidity;BME280_pressure;Samples;Min_cycle;Max_cycle;Signal;HPM_P1;HPM_P2
2024/03/17 00:02:06;;;;;;;8.60;2.20;;;4.60;99.90;;;;;;4863254;29;20207;-87
2024/03/17 00:04:31;;;;;;;11.27;2.17;;;4.60;99.90;;;;;;4862197;29;20216;-88
2024/03/17 00:06:57;;;;;;;12.10;2.57;;;4.60;99.90;;;;;;4863537;29;20208;-87
2024/03/17 00:09:24;;;;;;;8.50;2.20;;;4.60;99.90;;;;;;4864836;29;20181;-87
2024/03/17 00:11:49;;;;;;;8.90;2.03;;;4.60;99.90;;;;;;4863847;29;20245;-87
2024/03/17 00:14:16;;;;;;;7.03;1.90;;;4.50;99.90;;;;;;4863335;29;20181;-87
2024/03/17 00:16:43;;;;;;;13.17;2.67;;;4.50;99.90;;;;;;4878955;29;20255;-87
2024/03/17 00:19:08;;;;;;;10.70;2.47;;;4.60;99.90;;;;;;4863332;29;20184;-87
2024/03/17 00:21:35;;;;;;;13.13;2.30;;;4.60;99.90;;;;;;4863233;29;20220;-87
2024/03/17 00:24:02;;;;;;;13.63;2.60;;;4.60;99.90;;;;;;4863364;29;20173;-87
2024/03/17 00:26:29;;;;;;;15.40;3.10;;;4.60;99.90;;;;;;4863187;29;20240;-87
2024/03/17 00:28:55;;;;;;;13.03;2.30;;;4.70;99.90;;;;;;4863368;29;20188;-87
2024/03/17 00:31:23;;;;;;;15.13;2.10;;;4.80;99.90;;;;;;4863347;29;20758;-87
2024/03/17 00:33:52;;;;;;;12.87;1.93;;;4.80;99.90;;;;;;4878485;29;20204;-87
2024/03/17 00:36:18;;;;;;;10.07;2.30;;;4.70;99.90;;;;;;4862800;29;20188;-86
2024/03/17 00:38:44;;;;;;;10.47;2.60;;;4.60;99.90;;;;;;4863189;29;20192;-87
2024/03/17 00:41:09;;;;;;;10.83;2.70;;;4.50;99.90;;;;;;4862950;29;20228;-87
2024/03/17 00:43:36;;;;;;;11.07;1.87;;;4.40;99.90;;;;;;4863082;29;20184;-87
2024/03/17 00:46:02;;;;;;;13.87;2.27;;;4.30;99.90;;;;;;4863174;29;20196;-86
2024/03/17 00:48:28;;;;;;;22.27;2.53;;;4.30;99.90;;;;;;4862660;29;20181;-87
2024/03/17 00:50:58;;;;;;;8.43;2.03;;;4.40;99.90;;;;;;4862899;29;20739;-87
2024/03/17 00:53:24;;;;;;;7.63;2.00;;;4.40;99.90;;;;;;4863608;29;20204;-87
2024/03/17 00:55:54;;;;;;;9.60;2.27;;;4.40;99.90;;;;;;4863708;29;20241;-87
2024/03/17 00:58:23;;;;;;;9.30;2.20;;;4.50;99.90;;;;;;4862432;29;20208;-87
2024/03/17 01:00:49;;;;;;;8.90;2.37;;;4.40;99.90;;;;;;4862712;29;20278;-87
2024/03/17 01:03:18;;;;;;;11.10;2.80;;;4.50;99.90;;;;;;4862252;29;20185;-87
2024/03/17 01:05:47;;;;;;;7.50;2.10;;;4.40;99.90;;;;;;4863552;29;20228;-88
2024/03/17 01:08:13;;;;;;;17.37;2.47;;;4.40;99.90;;;;;;4862731;29;20185;-86
2024/03/17 01:10:41;;;;;;;10.90;2.40;;;4.50;99.90;;;;;;4862579;29;20185;-88
2024/03/17 01:13:09;;;;;;;8.00;2.33;;;4.50;99.90;;;;;;4862765;29;20751;-88
2024/03/17 01:15:39;;;;;;;11.60;2.50;;;4.50;99.90;;;;;;4862693;29;20188;-88
2024/03/17 01:18:05;;;;;;;10.60;2.10;;;4.40;99.90;;;;;;4862590;29;20176;-87
2024/03/17 01:20:41;;;;;;;7.80;1.80;;;4.30;99.90;;;;;;4862810;29;20224;-88
2024/03/17 01:23:07;;;;;;;7.53;2.10;;;4.30;99.90;;;;;;4862428;29;20245;-88
2024/03/17 01:25:37;;;;;;;9.03;1.93;;;4.30;99.90;;;;;;4861728;29;20560;-88
2024/03/17 01:28:04;;;;;;;8.97;1.60;;;4.20;99.90;;;;;;4862352;29;20620;-88
2024/03/17 01:30:30;;;;;;;9.77;2.20;;;4.20;99.90;;;;;;4862505;29;20200;-89
2024/03/17 01:32:56;;;;;;;8.37;2.03;;;4.10;99.90;;;;;;4862292;29;20192;-87
2024/03/17 01:35:22;;;;;;;10.23;2.03;;;4.00;99.90;;;;;;4862219;29;20645;-87
2024/03/17 01:37:48;;;;;;;12.30;2.17;;;4.00;99.90;;;;;;4862307;29;20278;-87
2024/03/17 01:40:14;;;;;;;6.87;1.90;;;3.90;99.90;;;;;;4862082;29;20632;-88
2024/03/17 01:42:43;;;;;;;13.70;2.20;;;3.90;99.90;;;;;;4862321;29;20188;-88
2024/03/17 01:45:27;;;;;;;9.00;2.27;;;3.90;99.90;;;;;;4861889;29;20325;-88
2024/03/17 01:47:54;;;;;;;14.70;2.20;;;3.90;99.90;;;;;;4876858;29;20192;-88
2024/03/17 01:50:24;;;;;;;12.93;2.23;;;3.90;99.90;;;;;;4861437;29;20656;-88
2024/03/17 01:52:59;;;;;;;16.33;2.33;;;4.00;99.90;;;;;;4862266;29;20189;-88
2024/03/17 01:55:27;;;;;;;11.17;2.33;;;3.90;99.90;;;;;;4861860;29;20218;-88
2024/03/17 01:57:54;;;;;;;10.70;2.13;;;4.00;99.90;;;;;;4862183;29;20192;-89
2024/03/17 02:00:20;;;;;;;15.07;2.83;;;4.00;99.90;;;;;;4863244;29;20220;-89
2024/03/17 02:02:47;;;;;;;10.13;2.33;;;4.00;99.90;;;;;;4861732;29;20188;-88
2024/03/17 02:05:13;;;;;;;13.00;2.33;;;4.00;99.90;;;;;;4861901;29;20232;-89
2024/03/17 02:07:40;;;;;;;11.70;2.27;;;4.00;99.90;;;;;;4861808;29;20185;-88
2024/03/17 02:10:08;;;;;;;8.67;2.40;;;4.00;99.90;;;;;;4861744;29;20605;-88
2024/03/17 02:12:36;;;;;;;12.27;3.37;;;4.00;99.90;;;;;;4862922;29;20233;-87
2024/03/17 02:15:05;;;;;;;12.63;3.07;;;4.00;99.90;;;;;;4861849;29;20180;-88
2024/03/17 02:17:34;;;;;;;12.03;2.67;;;4.00;99.90;;;;;;4862562;29;20214;-88
2024/03/17 02:20:00;;;;;;;11.63;2.67;;;3.90;99.90;;;;;;4862880;29;20220;-88
2024/03/17 02:22:30;;;;;;;8.87;2.20;;;3.90;99.90;;;;;;4861619;29;20216;-87
2024/03/17 02:24:56;;;;;;;14.97;2.17;;;3.80;99.90;;;;;;4861656;29;20188;-88
2024/03/17 02:27:21;;;;;;;13.23;2.40;;;3.80;99.90;;;;;;4861524;29;20189;-89
2024/03/17 02:29:47;;;;;;;13.07;3.10;;;3.80;99.90;;;;;;4861818;29;20257;-89
2024/03/17 02:32:14;;;;;;;10.80;2.60;;;3.70;99.90;;;;;;4862821;29;20180;-90
2024/03/17 02:34:41;;;;;;;13.00;2.27;;;3.70;99.90;;;;;;4861487;29;20338;-89
2024/03/17 02:37:06;;;;;;;12.37;3.17;;;3.70;99.90;;;;;;4861372;29;20180;-89
2024/03/17 02:39:34;;;;;;;6.33;2.20;;;3.80;99.90;;;;;;5250061;24;20309;-89
2024/03/17 02:42:10;;;;;;;7.67;1.87;;;3.70;99.90;;;;;;4844312;29;20549;-89
2024/03/17 02:44:39;;;;;;;8.60;2.03;;;3.70;99.90;;;;;;4859026;29;20264;-89
2024/03/17 02:47:08;;;;;;;15.20;2.60;;;3.70;99.90;;;;;;4858841;29;20201;-89
2024/03/17 02:49:39;;;;;;;8.00;2.30;;;3.80;99.90;;;;;;4858679;29;20185;-89
2024/03/17 02:52:11;;;;;;;13.53;2.50;;;3.70;99.90;;;;;;4858628;29;20610;-90
2024/03/17 02:54:38;;;;;;;9.60;2.43;;;3.80;99.90;;;;;;4858642;29;20193;-89
2024/03/17 02:57:06;;;;;;;8.73;2.00;;;3.80;99.90;;;;;;4858573;29;20275;-90
2024/03/17 02:59:32;;;;;;;10.67;2.27;;;3.80;99.90;;;;;;4858525;29;20221;-89
2024/03/17 03:02:02;;;;;;;15.30;2.73;;;3.90;99.90;;;;;;4858573;29;20292;-89
2024/03/17 03:04:28;;;;;;;12.93;2.23;;;3.90;99.90;;;;;;4858764;29;20500;-90
2024/03/17 03:06:54;;;;;;;10.10;1.93;;;3.90;99.90;;;;;;4858457;29;20199;-90
2024/03/17 03:09:31;;;;;;;12.77;2.20;;;3.90;99.90;;;;;;4863295;29;20271;-90
2024/03/17 03:12:08;;;;;;;13.00;1.90;;;3.90;99.90;;;;;;4880336;29;20266;-89
2024/03/17 03:14:34;;;;;;;9.57;2.53;;;4.00;99.90;;;;;;4880660;29;20211;-89
2024/03/17 03:17:00;;;;;;;8.13;2.23;;;4.00;99.90;;;;;;4880348;29;20184;-90
2024/03/17 03:19:27;;;;;;;13.77;2.43;;;3.90;99.90;;;;;;4879534;29;20274;-89
2024/03/17 03:21:54;;;;;;;13.40;2.80;;;4.00;99.90;;;;;;4879685;29;20195;-89
2024/03/17 03:24:20;;;;;;;11.23;2.50;;;3.80;99.90;;;;;;4879904;29;20637;-89
2024/03/17 03:26:46;;;;;;;11.83;2.40;;;3.80;99.90;;;;;;4879836;29;20184;-89
2024/03/17 03:29:14;;;;;;;9.73;2.50;;;3.80;99.90;;;;;;4879732;29;20183;-89
2024/03/17 03:31:40;;;;;;;9.73;2.37;;;3.70;99.90;;;;;;4879881;29;20180;-90
2024/03/17 03:34:10;;;;;;;12.13;2.27;;;3.70;99.90;;;;;;4879495;29;20216;-89
2024/03/17 03:36:38;;;;;;;7.83;2.10;;;3.70;99.90;;;;;;4878997;29;20608;-89
2024/03/17 03:39:04;;;;;;;15.13;2.40;;;3.60;99.90;;;;;;4880478;29;20283;-89
2024/03/17 03:41:35;;;;;;;12.33;2.33;;;3.60;99.90;;;;;;4864493;29;20655;-90
2024/03/17 03:44:00;;;;;;;6.33;1.70;;;3.60;99.90;;;;;;4879749;29;20213;-89
2024/03/17 03:46:26;;;;;;;10.47;2.10;;;3.70;99.90;;;;;;4879602;29;20192;-89
2024/03/17 03:48:52;;;;;;;11.90;2.10;;;3.60;99.90;;;;;;4882043;29;20202;-89
2024/03/17 03:51:24;;;;;;;11.47;1.80;;;3.60;99.90;;;;;;4867574;29;20516;-89
2024/03/17 03:53:51;;;;;;;12.53;2.23;;;3.50;99.90;;;;;;4882989;29;20216;-90
2024/03/17 03:56:16;;;;;;;6.93;2.03;;;3.40;99.90;;;;;;4882781;29;20349;-89
2024/03/17 03:58:42;;;;;;;6.40;1.93;;;3.30;99.90;;;;;;4883022;29;20191;-90
2024/03/17 04:01:11;;;;;;;14.27;2.43;;;3.20;99.90;;;;;;4882913;29;20227;-89
2024/03/17 04:03:37;;;;;;;7.83;1.90;;;3.30;99.90;;;;;;4867539;29;20244;-89
2024/03/17 04:06:10;;;;;;;8.30;2.20;;;3.40;99.90;;;;;;4867225;29;20215;-89
2024/03/17 04:08:39;;;;;;;10.43;2.27;;;3.40;99.90;;;;;;4867597;29;20192;-89
2024/03/17 04:11:08;;;;;;;12.53;2.43;;;3.50;99.90;;;;;;4867061;29;20552;-89
2024/03/17 04:13:35;;;;;;;12.17;2.10;;;3.60;99.90;;;;;;4883020;29;20217;-89
2024/03/17 04:16:06;;;;;;;6.27;1.87;;;3.50;99.90;;;;;;4882781;29;20188;-89
2024/03/17 04:18:34;;;;;;;9.67;2.30;;;3.40;99.90;;;;;;4882549;29;20239;-89
2024/03/17 04:21:22;;;;;;;13.67;1.97;;;3.30;99.90;;;;;;4882357;29;20249;-90
2024/03/17 04:23:48;;;;;;;8.60;2.17;;;3.40;99.90;;;;;;4882704;29;20184;-89
2024/03/17 04:26:14;;;;;;;15.43;2.87;;;3.30;99.90;;;;;;4882240;29;20184;-90
2024/03/17 04:28:40;;;;;;;13.03;2.60;;;3.20;99.90;;;;;;4882367;29;20188;-89
2024/03/17 04:31:07;;;;;;;7.97;2.33;;;3.10;99.90;;;;;;4882462;29;20210;-89
2024/03/17 04:33:36;;;;;;;14.63;2.77;;;3.10;99.90;;;;;;4882499;29;20172;-89
2024/03/17 04:36:02;;;;;;;8.97;1.97;;;3.10;99.90;;;;;;4882497;29;20188;-89
2024/03/17 04:38:28;;;;;;;9.60;2.30;;;3.10;99.90;;;;;;4882555;29;20180;-89
2024/03/17 04:41:09;;;;;;;9.73;2.47;;;3.20;99.90;;;;;;4878720;29;20718;-90
2024/03/17 04:43:35;;;;;;;8.23;2.13;;;3.10;99.90;;;;;;4863670;29;20204;-89
2024/03/17 04:46:07;;;;;;;6.47;2.53;;;3.00;99.90;;;;;;4863355;29;20220;-88
2024/03/17 04:48:33;;;;;;;12.37;2.57;;;3.00;99.90;;;;;;4863216;29;20187;-89
2024/03/17 04:51:05;;;;;;;11.63;2.63;;;3.10;99.90;;;;;;4863117;29;20180;-90
2024/03/17 04:53:31;;;;;;;11.47;2.83;;;3.10;99.90;;;;;;4863191;29;20518;-90
2024/03/17 04:56:05;;;;;;;11.33;2.37;;;3.20;99.90;;;;;;4863353;29;20351;-90
2024/03/17 04:58:34;;;;;;;9.90;2.20;;;3.30;99.90;;;;;;4863215;29;20272;-90
2024/03/17 05:01:07;;;;;;;8.87;2.43;;;3.40;99.90;;;;;;4862711;29;20558;-90
2024/03/17 05:03:34;;;;;;;8.67;2.23;;;3.40;99.90;;;;;;4863815;29;20184;-91
2024/03/17 05:06:01;;;;;;;9.57;2.47;;;3.40;99.90;;;;;;4848202;29;20189;-90
2024/03/17 05:08:27;;;;;;;9.13;2.10;;;3.50;99.90;;;;;;4863174;29;20191;-90
2024/03/17 05:11:07;;;;;;;9.17;2.57;;;3.50;99.90;;;;;;4879471;29;20184;-90
2024/03/17 05:13:34;;;;;;;9.30;2.20;;;3.40;99.90;;;;;;4881724;29;20592;-90
2024/03/17 05:16:01;;;;;;;12.00;2.33;;;3.40;99.90;;;;;;4865991;29;20243;-90
2024/03/17 05:18:27;;;;;;;10.27;2.97;;;3.40;99.90;;;;;;4881515;29;20184;-90
2024/03/17 05:21:01;;;;;;;11.20;2.73;;;3.30;99.90;;;;;;4881540;29;20230;-90
2024/03/17 05:23:29;;;;;;;18.77;2.70;;;3.30;99.90;;;;;;4881344;29;20620;-90
2024/03/17 05:25:56;;;;;;;11.70;2.43;;;3.30;99.90;;;;;;4881059;29;20671;-90
2024/03/17 05:28:25;;;;;;;5.43;1.97;;;3.30;99.90;;;;;;4881522;29;20224;-90
2024/03/17 05:30:52;;;;;;;14.93;2.43;;;3.40;99.90;;;;;;4881285;29;20532;-90
2024/03/17 05:33:23;;;;;;;11.20;2.50;;;3.50;99.90;;;;;;4881147;29;20195;-90
2024/03/17 05:35:54;;;;;;;9.50;2.67;;;3.50;99.90;;;;;;4881191;29;20627;-90
2024/03/17 05:38:24;;;;;;;11.77;2.27;;;3.60;99.90;;;;;;4882370;29;20176;-90
2024/03/17 05:41:01;;;;;;;8.93;2.23;;;3.60;99.90;;;;;;4877630;29;20243;-90
2024/03/17 05:43:30;;;;;;;14.07;2.33;;;3.50;99.90;;;;;;4862506;29;20176;-89
2024/03/17 05:46:01;;;;;;;16.57;2.60;;;3.50;99.90;;;;;;4862316;29;20189;-90
2024/03/17 05:48:27;;;;;;;12.93;2.47;;;3.50;99.90;;;;;;4879420;29;20278;-90
2024/03/17 05:50:53;;;;;;;16.60;2.70;;;3.50;99.90;;;;;;4865736;29;20223;-90
2024/03/17 05:53:23;;;;;;;10.20;2.60;;;3.50;99.90;;;;;;4865516;29;20180;-90
2024/03/17 05:55:50;;;;;;;10.40;2.53;;;3.60;99.90;;;;;;4865169;29;20176;-90
2024/03/17 05:58:16;;;;;;;8.77;2.30;;;3.60;99.90;;;;;;4882146;29;20688;-90
2024/03/17 06:00:42;;;;;;;6.90;2.60;;;3.50;99.90;;;;;;4865211;29;20215;-89
2024/03/17 06:03:10;;;;;;;16.83;2.80;;;3.50;99.90;;;;;;4880629;29;20188;-89
2024/03/17 06:05:38;;;;;;;9.53;2.63;;;3.60;99.90;;;;;;4865261;29;20187;-90
2024/03/17 06:08:05;;;;;;;9.20;2.40;;;3.60;99.90;;;;;;4865336;29;20252;-90
2024/03/17 06:10:33;;;;;;;8.47;2.87;;;3.60;99.90;;;;;;4880366;29;20243;-89
2024/03/17 06:13:05;;;;;;;15.53;3.57;;;3.70;99.90;;;;;;4865826;29;20699;-89
2024/03/17 06:15:31;;;;;;;10.97;2.50;;;3.80;99.90;;;;;;4882149;29;20168;-90
2024/03/17 06:17:56;;;;;;;12.87;2.70;;;3.80;99.90;;;;;;4880824;29;20239;-89
2024/03/17 06:20:26;;;;;;;12.23;2.50;;;3.80;99.90;;;;;;4879871;29;20582;-90
2024/03/17 06:23:03;;;;;;;12.03;2.37;;;3.80;99.90;;;;;;4880432;29;20196;-89
2024/03/17 06:25:29;;;;;;;10.20;2.43;;;3.90;99.90;;;;;;4880213;29;20323;-89
2024/03/17 06:27:57;;;;;;;8.00;2.10;;;3.90;99.90;;;;;;4881614;29;20255;-89
2024/03/17 06:30:23;;;;;;;12.13;2.63;;;3.90;99.90;;;;;;4879986;29;20188;-89
2024/03/17 06:32:49;;;;;;;11.27;2.57;;;3.90;99.90;;;;;;4880272;29;20491;-88
2024/03/17 06:35:15;;;;;;;9.70;2.50;;;4.00;99.90;;;;;;4880404;29;20187;-89
2024/03/17 06:37:42;;;;;;;16.90;2.77;;;4.00;99.90;;;;;;4880891;29;20183;-90
2024/03/17 06:40:14;;;;;;;12.10;3.37;;;4.00;99.90;;;;;;4872657;29;20267;-89
2024/03/17 06:42:58;;;;;;;9.23;3.03;;;4.00;99.90;;;;;;4895616;29;20176;-89
2024/03/17 06:45:26;;;;;;;10.73;2.87;;;4.10;99.90;;;;;;4895745;29;20646;-89
2024/03/17 06:48:03;;;;;;;9.83;2.90;;;4.20;99.90;;;;;;4895941;29;20205;-89
2024/03/17 06:50:28;;;;;;;7.70;2.90;;;4.30;99.90;;;;;;4896011;29;20180;-90
2024/03/17 06:53:01;;;;;;;10.53;3.00;;;4.30;99.90;;;;;;4881401;29;20639;-89
2024/03/17 06:55:28;;;;;;;12.27;2.90;;;4.40;99.90;;;;;;4895929;29;20176;-90
2024/03/17 06:57:53;;;;;;;14.70;2.70;;;4.40;99.90;;;;;;4896064;29;20183;-89
2024/03/17 07:00:24;;;;;;;14.63;3.83;;;4.50;99.90;;;;;;4895587;29;20207;-89
2024/03/17 07:02:58;;;;;;;10.23;3.23;;;4.60;99.90;;;;;;4895753;29;20228;-90
2024/03/17 07:05:26;;;;;;;12.00;3.20;;;4.60;99.90;;;;;;4895755;29;20180;-89
2024/03/17 07:07:52;;;;;;;17.40;3.77;;;4.70;99.90;;;;;;4895535;29;20188;-90
2024/03/17 07:10:18;;;;;;;9.00;2.97;;;4.70;99.90;;;;;;4880166;29;20196;-89
2024/03/17 07:12:44;;;;;;;11.33;3.20;;;4.80;99.90;;;;;;4858215;29;20185;-89
2024/03/17 07:15:11;;;;;;;8.93;3.10;;;4.90;99.90;;;;;;4858473;29;20213;-90
2024/03/17 07:17:36;;;;;;;15.13;3.47;;;5.00;99.90;;;;;;4858268;29;20181;-88
2024/03/17 07:20:03;;;;;;;9.33;3.17;;;5.00;99.90;;;;;;4858363;29;20229;-89
2024/03/17 07:22:29;;;;;;;7.97;3.03;;;5.10;99.90;;;;;;4858555;29;20197;-90
2024/03/17 07:25:00;;;;;;;11.87;3.00;;;5.20;99.90;;;;;;4861658;29;20504;-90
2024/03/17 07:27:29;;;;;;;12.97;3.37;;;5.30;99.90;;;;;;4861539;29;20235;-89
2024/03/17 07:29:55;;;;;;;10.90;3.40;;;5.30;99.90;;;;;;4861671;29;20221;-90
2024/03/17 07:32:25;;;;;;;13.70;3.90;;;5.40;99.90;;;;;;4861556;29;20638;-90
2024/03/17 07:34:51;;;;;;;14.27;4.07;;;5.50;99.90;;;;;;4861598;29;20227;-88
2024/03/17 07:37:17;;;;;;;12.93;3.80;;;5.50;99.90;;;;;;4861351;29;20638;-90
2024/03/17 07:39:42;;;;;;;16.63;3.47;;;5.60;99.90;;;;;;4864370;29;20232;-90
2024/03/17 07:42:08;;;;;;;11.93;3.90;;;5.70;99.90;;;;;;4849434;29;20244;-90
2024/03/17 07:44:36;;;;;;;13.50;3.33;;;5.80;99.90;;;;;;4849564;29;20193;-89
2024/03/17 07:47:03;;;;;;;12.53;3.73;;;6.00;99.90;;;;;;4849191;29;20203;-90
2024/03/17 07:49:30;;;;;;;12.50;3.87;;;6.00;99.90;;;;;;4848779;29;20189;-89
2024/03/17 07:51:57;;;;;;;9.33;3.63;;;6.10;99.90;;;;;;4848637;29;20185;-90
2024/03/17 07:54:30;;;;;;;18.80;3.70;;;6.20;99.90;;;;;;4848803;29;20197;-89
2024/03/17 07:56:56;;;;;;;12.10;3.43;;;6.30;99.90;;;;;;4879644;29;20613;-90
2024/03/17 07:59:21;;;;;;;13.60;3.30;;;6.50;99.90;;;;;;4848964;29;20192;-89
2024/03/17 08:01:47;;;;;;;14.10;4.03;;;6.50;99.90;;;;;;4879757;29;20221;-91
2024/03/17 08:04:18;;;;;;;12.60;3.40;;;6.50;99.90;;;;;;4848797;29;20180;-90
2024/03/17 08:06:48;;;;;;;16.80;3.80;;;6.50;99.90;;;;;;4848803;29;20185;-88
2024/03/17 08:09:18;;;;;;;10.10;3.17;;;6.50;99.90;;;;;;4848883;29;20199;-88
2024/03/17 08:11:46;;;;;;;11.47;3.70;;;6.60;99.90;;;;;;4863817;29;20173;-89
2024/03/17 08:14:26;;;;;;;15.67;3.40;;;6.60;99.90;;;;;;4864464;29;20617;-90
2024/03/17 08:16:52;;;;;;;15.97;3.63;;;6.60;99.90;;;;;;4863925;29;20191;-90
2024/03/17 08:19:17;;;;;;;15.50;3.20;;;6.70;99.90;;;;;;4865136;29;20185;-90
2024/03/17 08:21:45;;;;;;;14.93;2.57;;;6.70;99.90;;;;;;4864125;29;20216;-91
2024/03/17 08:24:13;;;;;;;11.47;2.73;;;6.70;99.90;;;;;;4864195;29;20189;-90
2024/03/17 08:26:40;;;;;;;17.20;3.20;;;6.70;99.90;;;;;;4863828;29;20249;-89
2024/03/17 08:29:06;;;;;;;10.17;2.70;;;6.60;99.90;;;;;;4863714;29;20181;-90
2024/03/17 08:31:32;;;;;;;14.83;2.80;;;6.60;99.90;;;;;;4863858;29;20189;-90
2024/03/17 08:33:59;;;;;;;12.53;3.13;;;6.60;99.90;;;;;;4863557;29;20249;-90
2024/03/17 08:36:25;;;;;;;12.40;2.80;;;6.60;99.90;;;;;;4863865;29;20230;-89
2024/03/17 08:38:51;;;;;;;12.43;3.60;;;6.70;99.90;;;;;;4864784;29;20284;-88
2024/03/17 08:41:17;;;;;;;12.63;2.67;;;6.70;99.90;;;;;;4881966;29;20425;-89
2024/03/17 08:43:49;;;;;;;15.50;2.77;;;6.70;99.90;;;;;;4882075;29;20574;-90
2024/03/17 08:46:15;;;;;;;19.57;2.70;;;6.80;99.90;;;;;;4882094;29;20204;-90
2024/03/17 08:48:42;;;;;;;18.07;2.60;;;6.80;99.90;;;;;;4882156;29;20184;-89
2024/03/17 08:51:10;;;;;;;15.40;2.37;;;6.90;99.90;;;;;;4882211;29;20250;-90
2024/03/17 08:53:42;;;;;;;14.33;3.17;;;6.90;99.90;;;;;;4881939;29;20184;-89
2024/03/17 08:56:08;;;;;;;13.70;2.50;;;7.10;99.90;;;;;;4881575;29;20184;-90
2024/03/17 08:58:34;;;;;;;16.87;2.80;;;7.20;99.90;;;;;;4882128;29;20191;-90
2024/03/17 09:01:05;;;;;;;13.97;2.50;;;7.30;99.90;;;;;;4881756;29;20215;-89
2024/03/17 09:03:31;;;;;;;13.10;3.20;;;7.40;99.90;;;;;;4881704;29;20264;-90
2024/03/17 09:05:58;;;;;;;9.93;3.07;;;7.40;99.90;;;;;;4881489;29;20282;-88
2024/03/17 09:08:26;;;;;;;18.20;3.87;;;7.50;99.90;;;;;;4881846;29;20267;-89
2024/03/17 09:10:53;;;;;;;14.70;2.97;;;7.50;99.90;;;;;;4881383;29;20188;-89
2024/03/17 09:13:20;;;;;;;17.37;3.30;;;7.60;99.90;;;;;;4882968;29;20221;-89
2024/03/17 09:16:01;;;;;;;12.63;2.80;;;7.50;99.90;;;;;;4881589;29;20194;-90
2024/03/17 09:18:28;;;;;;;13.57;3.20;;;7.60;99.90;;;;;;4881698;29;20187;-89
2024/03/17 09:21:02;;;;;;;13.87;3.40;;;7.60;99.90;;;;;;4881611;29;20536;-90
2024/03/17 09:23:29;;;;;;;12.80;2.77;;;7.70;99.90;;;;;;4881504;29;20211;-90
2024/03/17 09:26:00;;;;;;;10.03;2.53;;;7.80;99.90;;;;;;4880493;29;20184;-90
2024/03/17 09:28:27;;;;;;;13.23;3.07;;;7.90;99.90;;;;;;4881106;29;20203;-90
2024/03/17 09:30:55;;;;;;;12.57;2.63;;;8.10;99.90;;;;;;4881194;29;20679;-90
2024/03/17 09:33:22;;;;;;;13.23;2.87;;;8.10;99.90;;;;;;4881290;29;20219;-89
2024/03/17 09:36:00;;;;;;;12.83;2.40;;;8.00;99.90;;;;;;4881138;29;20194;-89
2024/03/17 09:38:27;;;;;;;8.80;2.63;;;8.00;99.90;;;;;;4881277;29;20190;-90
2024/03/17 09:40:54;;;;;;;10.73;2.73;;;8.00;99.90;;;;;;4880888;29;20251;-89
2024/03/17 09:43:21;;;;;;;11.77;2.00;;;8.00;99.90;;;;;;4881199;29;20278;-89
2024/03/17 09:45:50;;;;;;;7.77;1.80;;;8.00;99.90;;;;;;4880219;29;20203;-89
2024/03/17 09:48:17;;;;;;;7.90;2.20;;;7.90;99.90;;;;;;4880287;29;20187;-89
2024/03/17 09:50:54;;;;;;;12.43;2.47;;;7.90;99.90;;;;;;4880883;29;20183;-90
2024/03/17 09:53:25;;;;;;;9.88;1.95;;;8.00;99.90;;;;;;4881049;29;20183;-88
2024/03/17 09:56:09;;;;;;;15.05;1.88;;;8.00;99.90;;;;;;4865181;29;20187;-89
2024/03/17 09:58:35;;;;;;;11.43;2.93;;;8.20;99.90;;;;;;4881192;29;20551;-94
2024/03/17 10:01:01;;;;;;;12.63;2.50;;;8.40;99.90;;;;;;4880705;29;20262;-91
2024/03/17 10:03:58;;;;;;;10.65;1.95;;;8.30;99.90;;;;;;4880934;29;20620;-90
2024/03/17 10:06:29;;;;;;;12.77;2.20;;;8.20;99.90;;;;;;4881071;29;20215;-90
2024/03/17 10:08:58;;;;;;;8.63;2.03;;;8.30;99.90;;;;;;4880240;29;20200;-90
2024/03/17 10:11:31;;;;;;;9.15;2.47;;;8.30;99.90;;;;;;4880162;29;20191;-91
2024/03/17 10:14:08;;;;;;;9.27;1.88;;;8.30;99.90;;;;;;4880770;29;20235;-90
2024/03/17 10:16:38;;;;;;;11.27;2.27;;;8.50;99.90;;;;;;4880588;29;20203;-89
2024/03/17 10:19:22;;;;;;;8.87;2.30;;;8.60;99.90;;;;;;4880826;29;20184;-93
2024/03/17 10:21:48;;;;;;;8.10;1.75;;;8.80;99.90;;;;;;4880505;29;20686;-91
2024/03/17 10:24:34;;;;;;;11.40;2.00;;;8.80;99.90;;;;;;4880546;29;20230;-88
2024/03/17 10:27:01;;;;;;;9.02;2.08;;;8.80;99.90;;;;;;4880321;29;20180;-91
2024/03/17 10:29:35;;;;;;;10.65;1.60;;;8.80;99.90;;;;;;4880918;29;20192;-91
2024/03/17 10:32:14;;;;;;;10.38;2.20;;;8.80;99.90;;;;;;4880530;29;20620;-92
2024/03/17 10:34:43;;;;;;;9.13;1.97;;;8.70;99.90;;;;;;4880605;29;20194;-91
2024/03/17 10:37:13;;;;;;;8.00;1.70;;;8.60;99.90;;;;;;4880349;29;20203;-90
2024/03/17 10:39:41;;;;;;;8.27;1.67;;;8.50;99.90;;;;;;4880666;29;20239;-90
2024/03/17 10:42:09;;;;;;;9.23;1.90;;;8.50;99.90;;;;;;4864679;29;20188;-91
2024/03/17 10:44:48;;;;;;;14.03;4.30;;;8.40;99.90;;;;;;4865437;29;20278;-90
2024/03/17 10:47:25;;;;;;;10.02;2.70;;;8.40;99.90;;;;;;4880283;29;20191;-89
2024/03/17 10:49:55;;;;;;;5.95;1.83;;;8.60;99.90;;;;;;4863259;29;20188;-89
2024/03/17 10:52:23;;;;;;;7.25;2.88;;;8.90;99.90;;;;;;4864706;29;20203;-90
2024/03/17 10:54:53;;;;;;;11.30;2.10;;;9.10;99.90;;;;;;4863654;29;20184;-90
2024/03/17 10:57:27;;;;;;;8.60;1.67;;;9.00;99.90;;;;;;4866460;29;20284;-90
2024/03/17 10:59:53;;;;;;;9.68;2.00;;;9.10;99.90;;;;;;4877852;29;20191;-90
2024/03/17 11:02:35;;;;;;;9.45;2.00;;;9.20;99.90;;;;;;4880023;29;20210;-91
2024/03/17 11:05:07;;;;;;;8.65;1.73;;;9.50;99.90;;;;;;4887184;29;20238;-90
2024/03/17 11:07:37;;;;;;;14.85;2.25;;;9.70;99.90;;;;;;4887124;29;20707;-91
2024/03/17 11:10:05;;;;;;;7.70;1.77;;;9.60;99.90;;;;;;4876533;29;20227;-91
2024/03/17 11:12:49;;;;;;;11.10;2.43;;;9.50;99.90;;;;;;4876212;29;20235;-91
2024/03/17 11:15:38;;;;;;;8.48;1.70;;;9.50;99.90;;;;;;4886872;29;20191;-90
2024/03/17 11:18:10;;;;;;;7.68;2.00;;;9.40;99.90;;;;;;4886762;29;20691;-90
2024/03/17 11:20:40;;;;;;;7.75;2.00;;;9.50;99.90;;;;;;4886848;29;20568;-89
2024/03/17 11:23:07;;;;;;;9.73;1.60;;;9.50;99.90;;;;;;4887130;29;20179;-89
2024/03/17 11:25:40;;;;;;;11.45;2.45;;;9.40;99.90;;;;;;4897600;29;20565;-93
2024/03/17 11:28:11;;;;;;;4.28;1.52;;;9.70;99.90;;;;;;4883717;29;20180;-91
2024/03/17 11:30:57;;;;;;;6.00;1.73;;;9.90;99.90;;;;;;4868145;29;20177;-91
2024/03/17 11:36:22;;;;;;;8.35;1.90;;;9.80;99.90;;;;;;4884611;29;20192;-91
2024/03/17 11:39:46;;;;;;;8.90;2.08;;;9.70;99.90;;;;;;4883841;29;20741;-91
2024/03/17 11:41:54;;;;;;;6.78;1.67;;;9.80;99.90;;;;;;4877826;29;20223;-92
2024/03/17 11:44:32;;;;;;;8.73;2.13;;;10.20;99.90;;;;;;4867442;29;20191;-90
2024/03/17 11:47:00;;;;;;;7.13;2.33;;;10.50;99.90;;;;;;4867588;29;20705;-92
2024/03/17 11:49:28;;;;;;;9.45;1.95;;;10.70;99.90;;;;;;4867643;29;20188;-91
2024/03/17 11:52:00;;;;;;;9.82;2.08;;;10.80;99.90;;;;;;4884267;29;20207;-91
2024/03/17 11:54:29;;;;;;;11.68;2.13;;;11.00;99.90;;;;;;4867577;29;20250;-91
2024/03/17 11:57:24;;;;;;;8.30;1.73;;;11.10;99.90;;;;;;4867463;29;20207;-93
2024/03/17 11:59:51;;;;;;;10.30;1.63;;;11.20;99.90;;;;;;4865130;29;20636;-91
2024/03/17 12:02:22;;;;;;;9.57;2.25;;;11.30;99.90;;;;;;4867538;29;20219;-89
2024/03/17 12:04:49;;;;;;;8.27;1.85;;;11.40;99.90;;;;;;4867050;29;20191;-91
2024/03/17 12:07:20;;;;;;;8.55;2.08;;;11.40;99.90;;;;;;4867400;29;20216;-90
2024/03/17 12:09:48;;;;;;;12.13;1.88;;;11.60;99.90;;;;;;4866432;29;20263;-92
2024/03/17 12:12:22;;;;;;;7.47;2.00;;;11.60;99.90;;;;;;4867569;29;20615;-90
2024/03/17 12:14:50;;;;;;;9.35;2.15;;;11.70;99.90;;;;;;4867236;29;20211;-91
2024/03/17 12:17:22;;;;;;;4.88;1.65;;;11.70;99.90;;;;;;4867376;29;20190;-92
2024/03/17 12:19:48;;;;;;;7.95;2.35;;;11.70;99.90;;;;;;4867755;29;20636;-93
2024/03/17 12:22:21;;;;;;;10.52;2.22;;;11.80;99.90;;;;;;4867430;29;20576;-95
2024/03/17 12:24:53;;;;;;;6.20;1.95;;;11.60;99.90;;;;;;4866235;29;20179;-91
2024/03/17 12:27:30;;;;;;;9.65;2.17;;;11.60;99.90;;;;;;4866542;29;20195;-88
2024/03/17 12:29:56;;;;;;;6.15;1.80;;;11.70;99.90;;;;;;4867199;29;20247;-91
2024/03/17 12:32:24;;;;;;;7.70;1.85;;;11.90;99.90;;;;;;4867063;29;20215;-92
2024/03/17 12:34:54;;;;;;;7.90;1.83;;;12.00;99.90;;;;;;4866250;29;20199;-92
2024/03/17 12:37:22;;;;;;;6.82;1.90;;;12.10;99.90;;;;;;4883031;29;20168;-91
2024/03/17 12:39:49;;;;;;;7.10;1.88;;;12.30;99.90;;;;;;4866291;29;20235;-92
2024/03/17 12:42:20;;;;;;;6.65;1.90;;;12.30;99.90;;;;;;4866625;29;20195;-92
2024/03/17 12:44:53;;;;;;;8.43;2.40;;;12.30;99.90;;;;;;4866322;29;20236;-94
2024/03/17 12:47:34;;;;;;;9.25;2.08;;;12.20;99.90;;;;;;4868756;29;20251;-93
2024/03/17 12:50:02;;;;;;;9.10;1.77;;;12.30;99.90;;;;;;4867088;29;20600;-93
2024/03/17 12:52:30;;;;;;;8.10;2.08;;;12.30;99.90;;;;;;4867396;29;20218;-95
2024/03/17 13:01:07;;;;;;;7.57;2.15;;;12.40;99.90;;;;;;4883521;29;20215;-93
2024/03/17 13:03:35;;;;;;;9.02;2.22;;;12.50;99.90;;;;;;4866381;29;20184;-92
2024/03/17 13:06:08;;;;;;;7.93;2.03;;;12.40;99.90;;;;;;4866673;29;20216;-90
2024/03/17 13:08:34;;;;;;;7.68;2.00;;;12.20;99.90;;;;;;4883168;29;20172;-92
2024/03/17 13:11:00;;;;;;;5.95;1.80;;;12.30;99.90;;;;;;4882712;29;20209;-91